sensor_id;sensor_type;location;lat;lon;timestamp;P1;durP1;ratioP1;P2;durP2;ratioP2
30505;SDS011;17292;51.600;4.994;2022-12-10T00:01:54;7.47;;;3.20;;
30505;SDS011;17292;51.600;4.994;2022-12-10T00:04:20;8.05;;;3.17;;
30505;SDS011;17292;51.600;4.994;2022-12-10T00:06:47;8.70;;;3.17;;
30505;SDS011;17292;51.600;4.994;2022-12-10T00:09:14;6.07;;;2.70;;
30505;SDS011;17292;51.600;4.994;2022-12-10T00:11:41;8.65;;;3.40;;
30505;SDS011;17292;51.600;4.994;2022-12-10T00:14:07;7.25;;;2.67;;
30505;SDS011;17292;51.600;4.994;2022-12-10T00:16:34;8.80;;;3.42;;
30505;SDS011;17292;51.600;4.994;2022-12-10T00:19:01;9.65;;;3.13;;
30505;SDS011;17292;51.600;4.994;2022-12-10T00:21:29;5.28;;;2.83;;
30505;SDS011;17292;51.600;4.994;2022-12-10T00:23:55;4.47;;;3.30;;
30505;SDS011;17292;51.600;4.994;2022-12-10T00:26:32;8.05;;;3.50;;
30505;SDS011;17292;51.600;4.994;2022-12-10T00:28:59;9.30;;;3.45;;
30505;SDS011;17292;51.600;4.994;2022-12-10T00:31:27;8.52;;;3.17;;
30505;SDS011;17292;51.600;4.994;2022-12-10T00:33:55;7.30;;;2.92;;
30505;SDS011;17292;51.600;4.994;2022-12-10T00:36:26;10.27;;;3.75;;
30505;SDS011;17292;51.600;4.994;2022-12-10T00:38:52;8.52;;;3.40;;
30505;SDS011;17292;51.600;4.994;2022-12-10T00:41:19;6.60;;;3.63;;
30505;SDS011;17292;51.600;4.994;2022-12-10T00:43:46;9.20;;;3.63;;
30505;SDS011;17292;51.600;4.994;2022-12-10T00:46:13;5.63;;;3.33;;
30505;SDS011;17292;51.600;4.994;2022-12-10T00:48:40;7.88;;;3.42;;
30505;SDS011;17292;51.600;4.994;2022-12-10T00:51:08;7.03;;;3.20;;
30505;SDS011;17292;51.600;4.994;2022-12-10T00:53:35;7.10;;;2.90;;
30505;SDS011;17292;51.600;4.994;2022-12-10T00:56:02;7.07;;;2.90;;
30505;SDS011;17292;51.600;4.994;2022-12-10T00:58:29;8.35;;;3.28;;
30505;SDS011;17292;51.600;4.994;2022-12-10T01:01:19;6.78;;;3.25;;
30505;SDS011;17292;51.600;4.994;2022-12-10T01:03:42;10.15;;;3.30;;
30505;SDS011;17292;51.600;4.994;2022-12-10T01:06:09;11.93;;;3.47;;
30505;SDS011;17292;51.600;4.994;2022-12-10T01:08:36;7.30;;;3.80;;
30505;SDS011;17292;51.600;4.994;2022-12-10T01:11:02;6.82;;;2.92;;
30505;SDS011;17292;51.600;4.994;2022-12-10T01:13:28;9.38;;;3.13;;
30505;SDS011;17292;51.600;4.994;2022-12-10T01:15:55;7.00;;;3.28;;
30505;SDS011;17292;51.600;4.994;2022-12-10T01:18:21;5.28;;;2.95;;
30505;SDS011;17292;51.600;4.994;2022-12-10T01:20:47;9.35;;;3.00;;
30505;SDS011;17292;51.600;4.994;2022-12-10T01:23:13;9.27;;;3.17;;
30505;SDS011;17292;51.600;4.994;2022-12-10T01:25:39;7.40;;;3.03;;
30505;SDS011;17292;51.600;4.994;2022-12-10T01:28:06;10.25;;;3.38;;
30505;SDS011;17292;51.600;4.994;2022-12-10T01:30:32;7.18;;;3.17;;
30505;SDS011;17292;51.600;4.994;2022-12-10T01:32:58;7.07;;;3.28;;
30505;SDS011;17292;51.600;4.994;2022-12-10T01:35:24;8.15;;;3.28;;
30505;SDS011;17292;51.600;4.994;2022-12-10T01:37:51;5.65;;;3.00;;
30505;SDS011;17292;51.600;4.994;2022-12-10T01:40:17;6.78;;;3.13;;
30505;SDS011;17292;51.600;4.994;2022-12-10T01:42:43;5.43;;;3.13;;
30505;SDS011;17292;51.600;4.994;2022-12-10T01:45:10;4.18;;;3.08;;
30505;SDS011;17292;51.600;4.994;2022-12-10T01:47:37;5.80;;;3.03;;
30505;SDS011;17292;51.600;4.994;2022-12-10T01:50:05;8.90;;;3.80;;
30505;SDS011;17292;51.600;4.994;2022-12-10T01:52:32;5.07;;;3.22;;
30505;SDS011;17292;51.600;4.994;2022-12-10T01:54:58;7.07;;;3.30;;
30505;SDS011;17292;51.600;4.994;2022-12-10T01:57:26;4.70;;;3.10;;
30505;SDS011;17292;51.600;4.994;2022-12-10T01:59:57;6.05;;;3.70;;
30505;SDS011;17292;51.600;4.994;2022-12-10T02:02:38;7.88;;;3.72;;
30505;SDS011;17292;51.600;4.994;2022-12-10T02:05:17;7.65;;;3.22;;
30505;SDS011;17292;51.600;4.994;2022-12-10T02:10:29;4.72;;;3.00;;
30505;SDS011;17292;51.600;4.994;2022-12-10T02:19:03;6.43;;;3.17;;
30505;SDS011;17292;51.600;4.994;2022-12-10T02:21:13;7.35;;;3.63;;
30505;SDS011;17292;51.600;4.994;2022-12-10T02:23:42;7.32;;;3.38;;
30505;SDS011;17292;51.600;4.994;2022-12-10T02:27:12;6.45;;;3.65;;
30505;SDS011;17292;51.600;4.994;2022-12-10T02:29:19;8.68;;;3.72;;
30505;SDS011;17292;51.600;4.994;2022-12-10T02:31:48;7.80;;;2.58;;
30505;SDS011;17292;51.600;4.994;2022-12-10T02:34:15;5.18;;;3.05;;
30505;SDS011;17292;51.600;4.994;2022-12-10T02:36:42;5.95;;;2.80;;
30505;SDS011;17292;51.600;4.994;2022-12-10T02:39:11;8.15;;;3.22;;
30505;SDS011;17292;51.600;4.994;2022-12-10T02:41:38;5.65;;;3.30;;
30505;SDS011;17292;51.600;4.994;2022-12-10T02:44:07;5.72;;;2.92;;
30505;SDS011;17292;51.600;4.994;2022-12-10T02:46:34;8.52;;;3.33;;
30505;SDS011;17292;51.600;4.994;2022-12-10T02:49:03;8.43;;;3.63;;
30505;SDS011;17292;51.600;4.994;2022-12-10T02:51:29;7.35;;;3.13;;
30505;SDS011;17292;51.600;4.994;2022-12-10T02:54:02;9.00;;;3.90;;
30505;SDS011;17292;51.600;4.994;2022-12-10T03:01:39;4.50;;;2.95;;
30505;SDS011;17292;51.600;4.994;2022-12-10T03:06:58;5.18;;;3.05;;
30505;SDS011;17292;51.600;4.994;2022-12-10T03:09:29;5.80;;;3.40;;
30505;SDS011;17292;51.600;4.994;2022-12-10T03:12:08;7.07;;;3.40;;
30505;SDS011;17292;51.600;4.994;2022-12-10T03:14:35;5.43;;;3.30;;
30505;SDS011;17292;51.600;4.994;2022-12-10T03:17:03;6.32;;;3.17;;
30505;SDS011;17292;51.600;4.994;2022-12-10T03:19:36;12.77;;;3.90;;
30505;SDS011;17292;51.600;4.994;2022-12-10T03:22:05;5.40;;;3.10;;
30505;SDS011;17292;51.600;4.994;2022-12-10T03:24:33;5.18;;;3.47;;
30505;SDS011;17292;51.600;4.994;2022-12-10T03:27:01;5.72;;;3.30;;
30505;SDS011;17292;51.600;4.994;2022-12-10T03:29:30;7.80;;;3.20;;
30505;SDS011;17292;51.600;4.994;2022-12-10T03:31:57;5.90;;;3.63;;
30505;SDS011;17292;51.600;4.994;2022-12-10T03:34:24;6.35;;;3.45;;
30505;SDS011;17292;51.600;4.994;2022-12-10T03:36:50;6.25;;;3.30;;
30505;SDS011;17292;51.600;4.994;2022-12-10T03:39:17;8.98;;;3.45;;
30505;SDS011;17292;51.600;4.994;2022-12-10T03:41:43;5.68;;;3.10;;
30505;SDS011;17292;51.600;4.994;2022-12-10T03:44:09;6.25;;;3.25;;
30505;SDS011;17292;51.600;4.994;2022-12-10T03:46:35;5.80;;;3.15;;
30505;SDS011;17292;51.600;4.994;2022-12-10T03:49:02;6.30;;;3.25;;
30505;SDS011;17292;51.600;4.994;2022-12-10T03:51:28;7.07;;;3.33;;
30505;SDS011;17292;51.600;4.994;2022-12-10T03:53:54;9.00;;;3.38;;
30505;SDS011;17292;51.600;4.994;2022-12-10T03:56:21;6.97;;;3.38;;
30505;SDS011;17292;51.600;4.994;2022-12-10T03:58:47;7.78;;;2.92;;
30505;SDS011;17292;51.600;4.994;2022-12-10T04:01:14;7.70;;;3.15;;
30505;SDS011;17292;51.600;4.994;2022-12-10T04:03:41;6.20;;;3.75;;
30505;SDS011;17292;51.600;4.994;2022-12-10T04:06:09;6.88;;;3.67;;
30505;SDS011;17292;51.600;4.994;2022-12-10T04:08:36;5.93;;;3.47;;
30505;SDS011;17292;51.600;4.994;2022-12-10T04:11:03;7.85;;;3.40;;
30505;SDS011;17292;51.600;4.994;2022-12-10T04:13:31;5.75;;;2.92;;
30505;SDS011;17292;51.600;4.994;2022-12-10T04:16:15;5.13;;;3.00;;
30505;SDS011;17292;51.600;4.994;2022-12-10T04:18:55;6.10;;;3.05;;
30505;SDS011;17292;51.600;4.994;2022-12-10T04:21:21;5.10;;;3.40;;
30505;SDS011;17292;51.600;4.994;2022-12-10T04:24:07;7.15;;;3.60;;
30505;SDS011;17292;51.600;4.994;2022-12-10T04:26:52;5.38;;;3.20;;
30505;SDS011;17292;51.600;4.994;2022-12-10T04:29:19;9.73;;;3.92;;
30505;SDS011;17292;51.600;4.994;2022-12-10T04:31:46;6.03;;;3.58;;
30505;SDS011;17292;51.600;4.994;2022-12-10T04:34:12;6.68;;;3.83;;
30505;SDS011;17292;51.600;4.994;2022-12-10T04:36:38;5.63;;;3.35;;
30505;SDS011;17292;51.600;4.994;2022-12-10T04:39:04;5.55;;;3.28;;
30505;SDS011;17292;51.600;4.994;2022-12-10T04:41:31;4.97;;;3.22;;
30505;SDS011;17292;51.600;4.994;2022-12-10T04:43:57;9.13;;;3.65;;
30505;SDS011;17292;51.600;4.994;2022-12-10T04:46:23;6.47;;;3.20;;
30505;SDS011;17292;51.600;4.994;2022-12-10T04:48:49;6.38;;;3.40;;
30505;SDS011;17292;51.600;4.994;2022-12-10T04:51:16;8.55;;;3.88;;
30505;SDS011;17292;51.600;4.994;2022-12-10T04:53:42;7.15;;;3.55;;
30505;SDS011;17292;51.600;4.994;2022-12-10T04:56:08;4.45;;;3.10;;
30505;SDS011;17292;51.600;4.994;2022-12-10T04:58:34;5.15;;;3.35;;
30505;SDS011;17292;51.600;4.994;2022-12-10T05:01:04;3.78;;;3.28;;
30505;SDS011;17292;51.600;4.994;2022-12-10T05:03:30;6.65;;;3.47;;
30505;SDS011;17292;51.600;4.994;2022-12-10T05:06:03;7.78;;;3.47;;
30505;SDS011;17292;51.600;4.994;2022-12-10T05:08:29;6.75;;;3.58;;
30505;SDS011;17292;51.600;4.994;2022-12-10T05:10:59;4.60;;;3.30;;
30505;SDS011;17292;51.600;4.994;2022-12-10T05:13:27;5.90;;;3.17;;
30505;SDS011;17292;51.600;4.994;2022-12-10T05:15:53;7.57;;;3.33;;
30505;SDS011;17292;51.600;4.994;2022-12-10T05:18:19;5.78;;;3.20;;
30505;SDS011;17292;51.600;4.994;2022-12-10T05:20:45;5.20;;;3.42;;
30505;SDS011;17292;51.600;4.994;2022-12-10T05:23:12;6.47;;;3.55;;
30505;SDS011;17292;51.600;4.994;2022-12-10T05:28:26;5.45;;;3.35;;
30505;SDS011;17292;51.600;4.994;2022-12-10T05:30:52;7.57;;;3.53;;
30505;SDS011;17292;51.600;4.994;2022-12-10T05:33:18;6.38;;;3.33;;
30505;SDS011;17292;51.600;4.994;2022-12-10T05:35:52;7.65;;;3.47;;
30505;SDS011;17292;51.600;4.994;2022-12-10T05:38:18;6.50;;;3.55;;
30505;SDS011;17292;51.600;4.994;2022-12-10T05:40:45;7.38;;;3.97;;
30505;SDS011;17292;51.600;4.994;2022-12-10T05:43:11;8.80;;;3.53;;
30505;SDS011;17292;51.600;4.994;2022-12-10T05:45:37;6.70;;;3.60;;
30505;SDS011;17292;51.600;4.994;2022-12-10T05:48:04;4.40;;;3.33;;
30505;SDS011;17292;51.600;4.994;2022-12-10T05:50:33;5.38;;;3.40;;
30505;SDS011;17292;51.600;4.994;2022-12-10T05:52:59;7.00;;;3.85;;
30505;SDS011;17292;51.600;4.994;2022-12-10T05:55:25;5.65;;;3.95;;
30505;SDS011;17292;51.600;4.994;2022-12-10T05:57:53;6.72;;;3.95;;
30505;SDS011;17292;51.600;4.994;2022-12-10T06:00:19;5.20;;;3.90;;
30505;SDS011;17292;51.600;4.994;2022-12-10T06:02:46;5.55;;;3.63;;
30505;SDS011;17292;51.600;4.994;2022-12-10T06:05:12;10.30;;;4.25;;
30505;SDS011;17292;51.600;4.994;2022-12-10T06:07:38;5.30;;;3.65;;
30505;SDS011;17292;51.600;4.994;2022-12-10T06:10:05;4.75;;;3.65;;
30505;SDS011;17292;51.600;4.994;2022-12-10T06:12:31;4.75;;;3.80;;
30505;SDS011;17292;51.600;4.994;2022-12-10T06:14:57;6.20;;;3.25;;
30505;SDS011;17292;51.600;4.994;2022-12-10T06:17:23;4.90;;;3.50;;
30505;SDS011;17292;51.600;4.994;2022-12-10T06:19:50;4.45;;;3.58;;
30505;SDS011;17292;51.600;4.994;2022-12-10T06:22:16;4.82;;;3.60;;
30505;SDS011;17292;51.600;4.994;2022-12-10T06:24:42;7.47;;;3.58;;
30505;SDS011;17292;51.600;4.994;2022-12-10T06:27:08;5.28;;;3.30;;
30505;SDS011;17292;51.600;4.994;2022-12-10T06:29:35;8.52;;;4.07;;
30505;SDS011;17292;51.600;4.994;2022-12-10T06:32:01;5.75;;;3.83;;
30505;SDS011;17292;51.600;4.994;2022-12-10T06:34:27;4.78;;;3.25;;
30505;SDS011;17292;51.600;4.994;2022-12-10T06:36:53;5.68;;;3.50;;
30505;SDS011;17292;51.600;4.994;2022-12-10T06:39:19;4.90;;;3.25;;
30505;SDS011;17292;51.600;4.994;2022-12-10T06:41:46;6.95;;;3.78;;
30505;SDS011;17292;51.600;4.994;2022-12-10T06:44:12;4.40;;;3.33;;
30505;SDS011;17292;51.600;4.994;2022-12-10T06:46:39;4.88;;;4.05;;
30505;SDS011;17292;51.600;4.994;2022-12-10T06:49:06;4.10;;;3.58;;
30505;SDS011;17292;51.600;4.994;2022-12-10T06:51:32;5.03;;;4.03;;
30505;SDS011;17292;51.600;4.994;2022-12-10T06:53:58;4.47;;;3.80;;
30505;SDS011;17292;51.600;4.994;2022-12-10T06:56:25;7.65;;;4.00;;
30505;SDS011;17292;51.600;4.994;2022-12-10T06:58:51;6.00;;;3.85;;
30505;SDS011;17292;51.600;4.994;2022-12-10T07:01:19;7.97;;;3.92;;
30505;SDS011;17292;51.600;4.994;2022-12-10T07:03:49;8.60;;;4.32;;
30505;SDS011;17292;51.600;4.994;2022-12-10T07:06:16;8.13;;;4.13;;
30505;SDS011;17292;51.600;4.994;2022-12-10T07:08:42;6.20;;;3.85;;
30505;SDS011;17292;51.600;4.994;2022-12-10T07:11:10;4.25;;;3.40;;
30505;SDS011;17292;51.600;4.994;2022-12-10T07:13:37;5.88;;;3.83;;
30505;SDS011;17292;51.600;4.994;2022-12-10T07:16:11;6.38;;;4.00;;
30505;SDS011;17292;51.600;4.994;2022-12-10T07:18:37;5.38;;;4.30;;
30505;SDS011;17292;51.600;4.994;2022-12-10T07:21:12;6.10;;;3.70;;
30505;SDS011;17292;51.600;4.994;2022-12-10T07:23:38;4.35;;;3.63;;
30505;SDS011;17292;51.600;4.994;2022-12-10T07:26:04;5.68;;;4.13;;
30505;SDS011;17292;51.600;4.994;2022-12-10T07:28:31;6.10;;;4.25;;
30505;SDS011;17292;51.600;4.994;2022-12-10T07:31:04;6.13;;;3.63;;
30505;SDS011;17292;51.600;4.994;2022-12-10T07:33:30;6.22;;;4.05;;
30505;SDS011;17292;51.600;4.994;2022-12-10T07:35:57;5.57;;;3.85;;
30505;SDS011;17292;51.600;4.994;2022-12-10T07:38:23;4.97;;;3.92;;
30505;SDS011;17292;51.600;4.994;2022-12-10T07:40:50;6.82;;;3.97;;
30505;SDS011;17292;51.600;4.994;2022-12-10T07:43:16;5.38;;;3.55;;
30505;SDS011;17292;51.600;4.994;2022-12-10T07:45:43;8.40;;;4.70;;
30505;SDS011;17292;51.600;4.994;2022-12-10T07:48:09;5.95;;;3.80;;
30505;SDS011;17292;51.600;4.994;2022-12-10T07:50:35;6.03;;;3.58;;
30505;SDS011;17292;51.600;4.994;2022-12-10T07:53:02;5.15;;;3.72;;
30505;SDS011;17292;51.600;4.994;2022-12-10T07:55:28;5.97;;;4.00;;
30505;SDS011;17292;51.600;4.994;2022-12-10T07:57:54;8.90;;;3.90;;
30505;SDS011;17292;51.600;4.994;2022-12-10T08:00:20;5.82;;;3.50;;
30505;SDS011;17292;51.600;4.994;2022-12-10T08:02:47;5.10;;;3.67;;
30505;SDS011;17292;51.600;4.994;2022-12-10T08:05:13;6.22;;;4.47;;
30505;SDS011;17292;51.600;4.994;2022-12-10T08:07:39;5.95;;;3.70;;
30505;SDS011;17292;51.600;4.994;2022-12-10T08:10:06;5.18;;;3.88;;
30505;SDS011;17292;51.600;4.994;2022-12-10T08:12:32;6.50;;;3.95;;
30505;SDS011;17292;51.600;4.994;2022-12-10T08:14:58;6.95;;;4.28;;
30505;SDS011;17292;51.600;4.994;2022-12-10T08:17:25;5.13;;;3.90;;
30505;SDS011;17292;51.600;4.994;2022-12-10T08:19:51;4.63;;;3.45;;
30505;SDS011;17292;51.600;4.994;2022-12-10T08:22:19;5.82;;;4.18;;
30505;SDS011;17292;51.600;4.994;2022-12-10T08:24:45;6.32;;;4.32;;
30505;SDS011;17292;51.600;4.994;2022-12-10T08:27:11;4.68;;;3.75;;
30505;SDS011;17292;51.600;4.994;2022-12-10T08:29:38;7.07;;;3.90;;
30505;SDS011;17292;51.600;4.994;2022-12-10T08:32:04;7.28;;;4.05;;
30505;SDS011;17292;51.600;4.994;2022-12-10T08:34:30;5.28;;;3.97;;
30505;SDS011;17292;51.600;4.994;2022-12-10T08:36:56;5.72;;;4.00;;
30505;SDS011;17292;51.600;4.994;2022-12-10T08:39:23;5.30;;;3.78;;
30505;SDS011;17292;51.600;4.994;2022-12-10T08:41:49;6.13;;;4.00;;
30505;SDS011;17292;51.600;4.994;2022-12-10T08:44:15;6.38;;;4.15;;
30505;SDS011;17292;51.600;4.994;2022-12-10T08:46:41;6.10;;;3.65;;
30505;SDS011;17292;51.600;4.994;2022-12-10T08:49:07;5.43;;;4.28;;
30505;SDS011;17292;51.600;4.994;2022-12-10T08:51:34;4.10;;;3.70;;
30505;SDS011;17292;51.600;4.994;2022-12-10T08:54:00;4.90;;;3.83;;
30505;SDS011;17292;51.600;4.994;2022-12-10T08:56:26;5.32;;;3.85;;
30505;SDS011;17292;51.600;4.994;2022-12-10T08:58:52;5.38;;;3.80;;
30505;SDS011;17292;51.600;4.994;2022-12-10T09:01:19;5.95;;;4.03;;
30505;SDS011;17292;51.600;4.994;2022-12-10T09:03:45;5.80;;;3.90;;
30505;SDS011;17292;51.600;4.994;2022-12-10T09:06:13;5.57;;;3.72;;
30505;SDS011;17292;51.600;4.994;2022-12-10T09:08:39;5.03;;;3.42;;
30505;SDS011;17292;51.600;4.994;2022-12-10T09:11:10;5.88;;;4.15;;
30505;SDS011;17292;51.600;4.994;2022-12-10T09:13:37;8.02;;;4.15;;
30505;SDS011;17292;51.600;4.994;2022-12-10T09:16:03;6.97;;;3.95;;
30505;SDS011;17292;51.600;4.994;2022-12-10T09:18:30;4.55;;;3.83;;
30505;SDS011;17292;51.600;4.994;2022-12-10T09:20:56;5.53;;;3.72;;
30505;SDS011;17292;51.600;4.994;2022-12-10T09:23:22;5.05;;;3.67;;
30505;SDS011;17292;51.600;4.994;2022-12-10T09:25:49;6.15;;;4.30;;
30505;SDS011;17292;51.600;4.994;2022-12-10T09:28:15;6.25;;;4.13;;
30505;SDS011;17292;51.600;4.994;2022-12-10T09:30:41;4.22;;;3.83;;
30505;SDS011;17292;51.600;4.994;2022-12-10T09:33:07;5.57;;;3.78;;
30505;SDS011;17292;51.600;4.994;2022-12-10T09:35:34;4.93;;;4.00;;
30505;SDS011;17292;51.600;4.994;2022-12-10T09:38:00;6.05;;;4.35;;
30505;SDS011;17292;51.600;4.994;2022-12-10T09:40:35;5.57;;;4.03;;
30505;SDS011;17292;51.600;4.994;2022-12-10T09:43:09;5.03;;;4.30;;
30505;SDS011;17292;51.600;4.994;2022-12-10T09:51:12;6.47;;;3.92;;
30505;SDS011;17292;51.600;4.994;2022-12-10T09:53:42;5.28;;;3.50;;
30505;SDS011;17292;51.600;4.994;2022-12-10T09:56:16;5.70;;;4.13;;
30505;SDS011;17292;51.600;4.994;2022-12-10T09:58:44;3.85;;;3.38;;
30505;SDS011;17292;51.600;4.994;2022-12-10T10:01:12;4.85;;;4.22;;
30505;SDS011;17292;51.600;4.994;2022-12-10T10:03:41;5.82;;;4.13;;
30505;SDS011;17292;51.600;4.994;2022-12-10T10:06:13;5.15;;;4.00;;
30505;SDS011;17292;51.600;4.994;2022-12-10T10:11:08;5.72;;;3.85;;
30505;SDS011;17292;51.600;4.994;2022-12-10T10:13:40;4.32;;;3.88;;
30505;SDS011;17292;51.600;4.994;2022-12-10T10:18:40;5.07;;;4.05;;
30505;SDS011;17292;51.600;4.994;2022-12-10T10:21:11;6.13;;;4.35;;
30505;SDS011;17292;51.600;4.994;2022-12-10T10:23:41;4.82;;;4.20;;
30505;SDS011;17292;51.600;4.994;2022-12-10T10:26:09;6.80;;;4.40;;
30505;SDS011;17292;51.600;4.994;2022-12-10T10:28:35;4.07;;;3.67;;
30505;SDS011;17292;51.600;4.994;2022-12-10T10:31:07;4.55;;;3.72;;
30505;SDS011;17292;51.600;4.994;2022-12-10T10:33:47;6.38;;;4.35;;
30505;SDS011;17292;51.600;4.994;2022-12-10T10:36:14;4.78;;;3.83;;
30505;SDS011;17292;51.600;4.994;2022-12-10T10:38:43;5.45;;;4.03;;
30505;SDS011;17292;51.600;4.994;2022-12-10T10:41:12;5.18;;;4.38;;
30505;SDS011;17292;51.600;4.994;2022-12-10T10:43:40;4.25;;;3.70;;
30505;SDS011;17292;51.600;4.994;2022-12-10T10:46:12;6.00;;;4.18;;
30505;SDS011;17292;51.600;4.994;2022-12-10T10:48:38;5.00;;;3.67;;
30505;SDS011;17292;51.600;4.994;2022-12-10T10:51:06;6.43;;;4.50;;
30505;SDS011;17292;51.600;4.994;2022-12-10T10:53:40;5.22;;;4.40;;
30505;SDS011;17292;51.600;4.994;2022-12-10T10:56:11;5.30;;;4.07;;
30505;SDS011;17292;51.600;4.994;2022-12-10T10:58:46;4.18;;;3.72;;
30505;SDS011;17292;51.600;4.994;2022-12-10T11:01:13;5.85;;;4.05;;
30505;SDS011;17292;51.600;4.994;2022-12-10T11:03:44;6.32;;;4.10;;
30505;SDS011;17292;51.600;4.994;2022-12-10T11:06:11;5.35;;;4.25;;
30505;SDS011;17292;51.600;4.994;2022-12-10T11:08:38;4.93;;;4.28;;
30505;SDS011;17292;51.600;4.994;2022-12-10T11:11:06;5.88;;;3.90;;
30505;SDS011;17292;51.600;4.994;2022-12-10T11:13:36;4.40;;;4.00;;
30505;SDS011;17292;51.600;4.994;2022-12-10T11:16:16;6.45;;;4.20;;
30505;SDS011;17292;51.600;4.994;2022-12-10T11:18:59;4.60;;;4.10;;
30505;SDS011;17292;51.600;4.994;2022-12-10T11:21:32;4.30;;;3.65;;
30505;SDS011;17292;51.600;4.994;2022-12-10T11:23:59;5.85;;;3.80;;
30505;SDS011;17292;51.600;4.994;2022-12-10T11:34:28;5.13;;;4.15;;
30505;SDS011;17292;51.600;4.994;2022-12-10T11:40:06;7.40;;;4.95;;
30505;SDS011;17292;51.600;4.994;2022-12-10T11:45:20;4.85;;;3.78;;
30505;SDS011;17292;51.600;4.994;2022-12-10T11:50:47;7.25;;;4.20;;
30505;SDS011;17292;51.600;4.994;2022-12-10T12:03:32;4.35;;;4.00;;
30505;SDS011;17292;51.600;4.994;2022-12-10T12:06:06;7.15;;;4.57;;
30505;SDS011;17292;51.600;4.994;2022-12-10T12:11:18;5.35;;;4.30;;
30505;SDS011;17292;51.600;4.994;2022-12-10T12:14:36;7.95;;;4.30;;
30505;SDS011;17292;51.600;4.994;2022-12-10T12:16:37;5.20;;;3.78;;
30505;SDS011;17292;51.600;4.994;2022-12-10T12:19:27;5.72;;;4.15;;
30505;SDS011;17292;51.600;4.994;2022-12-10T12:21:54;5.22;;;3.72;;
30505;SDS011;17292;51.600;4.994;2022-12-10T12:24:22;4.28;;;3.78;;
30505;SDS011;17292;51.600;4.994;2022-12-10T12:26:58;5.72;;;4.53;;
30505;SDS011;17292;51.600;4.994;2022-12-10T12:32:03;4.30;;;3.90;;
30505;SDS011;17292;51.600;4.994;2022-12-10T12:37:05;4.63;;;4.03;;
30505;SDS011;17292;51.600;4.994;2022-12-10T12:39:48;4.90;;;4.35;;
30505;SDS011;17292;51.600;4.994;2022-12-10T12:42:24;5.82;;;4.43;;
30505;SDS011;17292;51.600;4.994;2022-12-10T12:45:13;5.25;;;4.40;;
30505;SDS011;17292;51.600;4.994;2022-12-10T12:47:45;6.60;;;4.38;;
30505;SDS011;17292;51.600;4.994;2022-12-10T12:50:57;4.90;;;4.10;;
30505;SDS011;17292;51.600;4.994;2022-12-10T12:53:02;4.60;;;4.20;;
30505;SDS011;17292;51.600;4.994;2022-12-10T12:55:43;5.03;;;4.10;;
30505;SDS011;17292;51.600;4.994;2022-12-10T13:00:40;4.38;;;4.00;;
30505;SDS011;17292;51.600;4.994;2022-12-10T13:03:42;5.13;;;4.53;;
30505;SDS011;17292;51.600;4.994;2022-12-10T13:06:19;5.10;;;4.05;;
30505;SDS011;17292;51.600;4.994;2022-12-10T13:08:58;5.50;;;4.43;;
30505;SDS011;17292;51.600;4.994;2022-12-10T13:27:10;5.68;;;4.43;;
30505;SDS011;17292;51.600;4.994;2022-12-10T13:34:38;4.57;;;4.18;;
30505;SDS011;17292;51.600;4.994;2022-12-10T13:42:36;6.38;;;4.38;;
30505;SDS011;17292;51.600;4.994;2022-12-10T13:47:49;4.80;;;4.40;;
30505;SDS011;17292;51.600;4.994;2022-12-10T14:08:21;6.30;;;4.55;;
30505;SDS011;17292;51.600;4.994;2022-12-10T14:10:49;5.20;;;4.38;;
30505;SDS011;17292;51.600;4.994;2022-12-10T14:13:16;5.47;;;4.10;;
30505;SDS011;17292;51.600;4.994;2022-12-10T14:16:03;5.25;;;4.60;;
30505;SDS011;17292;51.600;4.994;2022-12-10T14:18:31;5.05;;;4.60;;
30505;SDS011;17292;51.600;4.994;2022-12-10T14:20:57;4.90;;;4.40;;
30505;SDS011;17292;51.600;4.994;2022-12-10T14:26:06;4.93;;;4.30;;
30505;SDS011;17292;51.600;4.994;2022-12-10T14:28:36;5.05;;;4.53;;
30505;SDS011;17292;51.600;4.994;2022-12-10T14:31:05;6.53;;;4.60;;
30505;SDS011;17292;51.600;4.994;2022-12-10T14:33:32;5.53;;;4.10;;
30505;SDS011;17292;51.600;4.994;2022-12-10T14:36:28;4.40;;;3.97;;
30505;SDS011;17292;51.600;4.994;2022-12-10T14:38:55;5.28;;;4.32;;
30505;SDS011;17292;51.600;4.994;2022-12-10T14:41:22;5.22;;;4.28;;
30505;SDS011;17292;51.600;4.994;2022-12-10T14:43:48;4.38;;;3.97;;
30505;SDS011;17292;51.600;4.994;2022-12-10T14:46:19;5.68;;;4.70;;
30505;SDS011;17292;51.600;4.994;2022-12-10T14:48:48;6.68;;;4.25;;
30505;SDS011;17292;51.600;4.994;2022-12-10T14:51:15;6.00;;;4.65;;
30505;SDS011;17292;51.600;4.994;2022-12-10T14:53:44;4.90;;;4.40;;
30505;SDS011;17292;51.600;4.994;2022-12-10T14:56:13;4.95;;;4.45;;
30505;SDS011;17292;51.600;4.994;2022-12-10T14:58:43;4.35;;;3.95;;
30505;SDS011;17292;51.600;4.994;2022-12-10T15:01:44;4.60;;;4.20;;
30505;SDS011;17292;51.600;4.994;2022-12-10T15:04:03;4.47;;;4.07;;
30505;SDS011;17292;51.600;4.994;2022-12-10T15:06:34;4.72;;;4.13;;
30505;SDS011;17292;51.600;4.994;2022-12-10T15:09:01;4.80;;;4.38;;
30505;SDS011;17292;51.600;4.994;2022-12-10T15:11:28;6.18;;;4.43;;
30505;SDS011;17292;51.600;4.994;2022-12-10T15:13:56;6.43;;;4.32;;
30505;SDS011;17292;51.600;4.994;2022-12-10T15:16:28;4.43;;;4.00;;
30505;SDS011;17292;51.600;4.994;2022-12-10T15:18:54;5.03;;;4.50;;
30505;SDS011;17292;51.600;4.994;2022-12-10T15:21:25;4.55;;;4.15;;
30505;SDS011;17292;51.600;4.994;2022-12-10T15:24:07;4.25;;;3.88;;
30505;SDS011;17292;51.600;4.994;2022-12-10T15:26:34;4.97;;;4.47;;
30505;SDS011;17292;51.600;4.994;2022-12-10T15:31:45;4.75;;;4.35;;
30505;SDS011;17292;51.600;4.994;2022-12-10T15:34:12;4.88;;;3.92;;
30505;SDS011;17292;51.600;4.994;2022-12-10T15:36:43;4.82;;;4.32;;
30505;SDS011;17292;51.600;4.994;2022-12-10T15:39:24;5.65;;;4.72;;
30505;SDS011;17292;51.600;4.994;2022-12-10T15:44:24;5.72;;;4.18;;
30505;SDS011;17292;51.600;4.994;2022-12-10T15:47:01;4.78;;;4.20;;
30505;SDS011;17292;51.600;4.994;2022-12-10T15:49:29;5.55;;;4.60;;
30505;SDS011;17292;51.600;4.994;2022-12-10T15:51:55;5.15;;;4.40;;
30505;SDS011;17292;51.600;4.994;2022-12-10T15:54:32;4.88;;;4.35;;
30505;SDS011;17292;51.600;4.994;2022-12-10T15:56:59;4.82;;;4.32;;
30505;SDS011;17292;51.600;4.994;2022-12-10T15:59:26;6.60;;;4.35;;
30505;SDS011;17292;51.600;4.994;2022-12-10T16:01:52;4.32;;;3.92;;
30505;SDS011;17292;51.600;4.994;2022-12-10T16:04:18;4.53;;;4.13;;
30505;SDS011;17292;51.600;4.994;2022-12-10T16:06:45;4.25;;;3.85;;
30505;SDS011;17292;51.600;4.994;2022-12-10T16:09:11;4.60;;;4.10;;
30505;SDS011;17292;51.600;4.994;2022-12-10T16:11:37;5.00;;;4.22;;
30505;SDS011;17292;51.600;4.994;2022-12-10T16:14:05;4.65;;;3.80;;
30505;SDS011;17292;51.600;4.994;2022-12-10T16:16:31;5.65;;;4.28;;
30505;SDS011;17292;51.600;4.994;2022-12-10T16:18:58;4.65;;;4.07;;
30505;SDS011;17292;51.600;4.994;2022-12-10T16:21:24;5.10;;;4.30;;
30505;SDS011;17292;51.600;4.994;2022-12-10T16:23:51;5.88;;;4.30;;
30505;SDS011;17292;51.600;4.994;2022-12-10T16:26:21;6.43;;;4.20;;
30505;SDS011;17292;51.600;4.994;2022-12-10T16:28:48;5.47;;;4.35;;
30505;SDS011;17292;51.600;4.994;2022-12-10T16:31:16;5.32;;;4.40;;
30505;SDS011;17292;51.600;4.994;2022-12-10T16:33:43;4.70;;;4.28;;
30505;SDS011;17292;51.600;4.994;2022-12-10T16:36:10;6.05;;;4.45;;
30505;SDS011;17292;51.600;4.994;2022-12-10T16:38:36;6.53;;;4.22;;
30505;SDS011;17292;51.600;4.994;2022-12-10T16:41:03;5.25;;;4.47;;
30505;SDS011;17292;51.600;4.994;2022-12-10T16:43:32;6.15;;;4.72;;
30505;SDS011;17292;51.600;4.994;2022-12-10T16:45:59;5.40;;;4.75;;
30505;SDS011;17292;51.600;4.994;2022-12-10T16:48:25;4.90;;;4.50;;
30505;SDS011;17292;51.600;4.994;2022-12-10T16:50:52;5.47;;;4.63;;
30505;SDS011;17292;51.600;4.994;2022-12-10T16:53:20;5.68;;;4.30;;
30505;SDS011;17292;51.600;4.994;2022-12-10T16:55:47;5.40;;;4.40;;
30505;SDS011;17292;51.600;4.994;2022-12-10T16:58:13;5.70;;;4.60;;
30505;SDS011;17292;51.600;4.994;2022-12-10T17:00:41;4.88;;;4.38;;